Time;durP1;ratioP1;P1;durP2;ratioP2;P2;SDS_P1;SDS_P2;PMS_P1;PMS_P2;Temp;Humidity;BMP_temperature;BMP_pressure;BME280_temperature;BME280_humidity;BME280_pressure;Samples;Min_cycle;Max_cycle;Signal;HPM_P1;HPM_P2
2022/04/02 00:01:25;;;;;;;3.67;0.63;;;16.20;37.40;15.30;100991.00;;;;5065545;28;20444;-66
2022/04/02 00:04:11;;;;;;;1.52;0.63;;;16.20;37.40;15.30;101004.00;;;;5057894;28;20029;-66
2022/04/02 00:06:57;;;;;;;2.45;1.10;;;16.20;37.50;15.30;100996.00;;;;5066667;28;20433;-65
2022/04/02 00:09:43;;;;;;;2.20;0.60;;;16.20;37.40;15.30;100999.00;;;;5053547;28;20040;-66
2022/04/02 00:12:29;;;;;;;1.77;0.88;;;16.20;37.30;15.30;100997.00;;;;5060237;28;20052;-66
2022/04/02 00:15:16;;;;;;;1.45;0.60;;;16.20;37.30;15.30;100995.00;;;;5060134;28;20052;-66
2022/04/02 00:18:02;;;;;;;0.82;0.47;;;16.20;37.20;15.30;100998.00;;;;5062214;28;20115;-66
2022/04/02 00:20:48;;;;;;;4.45;1.75;;;16.20;37.20;15.30;101004.00;;;;5054576;28;20234;-66
2022/04/02 00:23:40;;;;;;;1.05;0.68;;;16.20;37.20;15.30;100998.00;;;;5045396;28;20249;-65
2022/04/02 00:26:26;;;;;;;2.20;0.90;;;16.20;37.20;15.30;101010.00;;;;5059612;28;20463;-66
2022/04/02 00:29:12;;;;;;;1.55;0.65;;;16.20;37.30;15.30;101001.00;;;;5060404;28;20135;-65
2022/04/02 00:31:58;;;;;;;0.98;0.50;;;16.20;37.20;15.30;101000.00;;;;5083670;28;20036;-66
2022/04/02 00:34:44;;;;;;;1.45;0.73;;;16.20;37.20;15.30;101000.00;;;;5072893;28;20037;-66
2022/04/02 00:37:30;;;;;;;0.95;0.57;;;16.20;37.20;15.30;100998.00;;;;5074820;28;20052;-66
2022/04/02 00:40:16;;;;;;;1.15;0.60;;;16.20;37.20;15.30;100997.00;;;;5078968;28;20036;-66
2022/04/02 00:43:02;;;;;;;0.85;0.52;;;16.20;37.20;15.30;100997.00;;;;5079336;28;20047;-65
2022/04/02 00:45:49;;;;;;;2.17;0.90;;;16.20;37.10;15.30;101001.00;;;;5075880;28;20409;-66
2022/04/02 00:48:36;;;;;;;1.45;0.60;;;16.30;37.20;15.30;100997.00;;;;5060313;28;20039;-66
2022/04/02 00:51:22;;;;;;;1.55;0.50;;;16.20;37.10;15.30;100999.00;;;;5065731;28;20044;-65
2022/04/02 00:54:13;;;;;;;1.40;0.60;;;16.20;37.10;15.30;100997.00;;;;5048724;28;21895;-65
2022/04/02 00:57:00;;;;;;;2.10;0.75;;;16.20;37.00;15.30;101002.00;;;;5088789;28;20072;-66
2022/04/02 00:59:46;;;;;;;2.05;0.85;;;16.20;37.10;15.30;100997.00;;;;5061704;28;20040;-65
2022/04/02 01:02:33;;;;;;;0.80;0.50;;;16.20;37.00;15.30;101005.00;;;;5062047;28;20062;-65
2022/04/02 01:05:20;;;;;;;0.55;0.40;;;16.20;37.10;15.30;101009.00;;;;5059283;28;20052;-65
2022/04/02 01:08:06;;;;;;;1.38;0.47;;;16.10;37.00;15.30;101008.00;;;;5061583;28;20044;-66
2022/04/02 01:10:58;;;;;;;1.48;0.60;;;16.20;37.70;15.30;101007.00;;;;5075340;28;20036;-66
2022/04/02 01:13:44;;;;;;;2.20;0.90;;;16.10;37.00;15.20;101006.00;;;;5062933;28;20036;-65
2022/04/02 01:16:32;;;;;;;0.82;0.60;;;16.10;37.10;15.20;101010.00;;;;5074176;28;20052;-65
2022/04/02 01:19:18;;;;;;;1.27;0.73;;;16.10;37.10;15.20;101020.00;;;;5073073;28;20036;-65
2022/04/02 01:22:04;;;;;;;1.80;0.63;;;16.10;37.10;15.20;101015.00;;;;5070013;28;20040;-65
2022/04/02 01:24:51;;;;;;;0.57;0.47;;;16.10;37.00;15.20;101010.00;;;;5073021;28;20048;-66
2022/04/02 01:27:37;;;;;;;1.10;0.63;;;16.10;37.00;15.20;101017.00;;;;5077901;28;20028;-66
2022/04/02 01:30:23;;;;;;;0.88;0.60;;;16.10;36.90;15.20;101021.00;;;;5061744;28;20037;-65
2022/04/02 01:33:09;;;;;;;1.42;0.60;;;16.10;37.00;15.20;101018.00;;;;5073609;28;20036;-66
2022/04/02 01:36:00;;;;;;;4.30;1.80;;;16.10;37.00;15.20;101028.00;;;;5071253;28;20553;-65
2022/04/02 01:38:47;;;;;;;1.40;0.52;;;16.10;36.90;15.20;101013.00;;;;5075162;28;20459;-67
2022/04/02 01:41:33;;;;;;;1.33;0.70;;;16.10;37.00;15.20;101022.00;;;;5056479;28;20053;-66
2022/04/02 01:44:19;;;;;;;1.05;0.90;;;16.10;37.10;15.20;101015.00;;;;5054795;28;20050;-66
2022/04/02 01:47:05;;;;;;;1.85;0.52;;;16.10;37.00;15.20;101025.00;;;;5054195;28;20399;-65
2022/04/02 01:49:51;;;;;;;1.17;0.60;;;16.10;37.00;15.20;101020.00;;;;5055812;28;20047;-65
2022/04/02 01:52:37;;;;;;;3.17;0.70;;;16.10;37.00;15.20;101027.00;;;;5066690;28;20082;-66
2022/04/02 01:55:24;;;;;;;1.55;0.60;;;16.00;36.90;15.20;101018.00;;;;5073396;28;20103;-66
2022/04/02 01:58:10;;;;;;;1.10;0.65;;;16.10;37.00;15.20;101025.00;;;;5054273;28;20410;-66
2022/04/02 02:00:56;;;;;;;2.17;1.13;;;16.00;36.90;15.20;101030.00;;;;5045048;28;20464;-65
2022/04/02 02:03:42;;;;;;;0.75;0.57;;;16.00;36.80;15.20;101023.00;;;;5052757;28;20501;-65
2022/04/02 02:06:28;;;;;;;0.85;0.52;;;16.00;36.90;15.20;101032.00;;;;5067900;28;20055;-66
2022/04/02 02:09:17;;;;;;;1.95;0.57;;;16.00;36.90;15.20;101037.00;;;;5051978;28;20037;-66
2022/04/02 02:12:04;;;;;;;3.05;0.60;;;16.00;36.80;15.20;101039.00;;;;5028826;28;20509;-66
2022/04/02 02:14:50;;;;;;;1.10;0.50;;;16.00;36.90;15.20;101042.00;;;;5058670;28;20039;-66
2022/04/02 02:17:36;;;;;;;1.42;0.63;;;16.00;36.90;15.20;101036.00;;;;5043481;28;20036;-66
2022/04/02 02:20:22;;;;;;;0.80;0.60;;;16.00;36.80;15.20;101039.00;;;;5061303;28;20032;-65
2022/04/02 02:23:08;;;;;;;3.65;0.80;;;16.00;36.90;15.20;101044.00;;;;5051651;28;20060;-66
2022/04/02 02:25:54;;;;;;;0.95;0.50;;;16.00;36.80;15.20;101049.00;;;;5043980;28;20041;-66
2022/04/02 02:28:41;;;;;;;1.42;0.68;;;16.00;36.90;15.20;101053.00;;;;5047203;28;20036;-65
2022/04/02 02:31:27;;;;;;;1.17;0.50;;;16.00;36.80;15.20;101045.00;;;;5056529;28;20115;-65
2022/04/02 02:37:17;;;;;;;1.10;0.70;;;16.00;36.70;15.20;101055.00;;;;5052686;28;20044;-65
2022/04/02 02:40:04;;;;;;;0.82;0.70;;;16.00;36.80;15.20;101059.00;;;;5043897;28;20387;-65
2022/04/02 02:42:50;;;;;;;1.63;0.70;;;16.00;36.70;15.20;101065.00;;;;5050894;28;20124;-66
2022/04/02 02:45:36;;;;;;;1.38;0.77;;;16.00;36.70;15.20;101056.00;;;;5062415;28;20111;-65
2022/04/02 02:48:23;;;;;;;1.15;0.80;;;16.10;36.80;15.20;101066.00;;;;5060432;28;20048;-66
2022/04/02 02:51:09;;;;;;;1.67;0.65;;;16.00;36.70;15.20;101069.00;;;;5051414;28;20045;-66
2022/04/02 02:53:55;;;;;;;2.20;0.68;;;16.00;36.70;15.20;101070.00;;;;5057909;28;20413;-65
2022/04/02 02:56:41;;;;;;;1.15;0.60;;;16.00;36.70;15.20;101057.00;;;;5060392;28;20048;-65
2022/04/02 02:59:27;;;;;;;1.27;0.50;;;16.00;36.70;15.20;101067.00;;;;5056507;28;20540;-65
2022/04/02 03:02:13;;;;;;;1.63;0.60;;;16.00;36.70;15.20;101069.00;;;;5068947;28;20041;-66
2022/04/02 03:04:59;;;;;;;0.93;0.57;;;16.00;36.70;15.20;101070.00;;;;5051851;28;20041;-66
2022/04/02 03:07:51;;;;;;;1.30;0.70;;;16.00;36.60;15.20;101070.00;;;;5060726;28;20365;-66
2022/04/02 03:10:37;;;;;;;1.80;0.68;;;16.00;36.60;15.20;101071.00;;;;5059491;28;20039;-66
2022/04/02 03:13:23;;;;;;;0.93;0.70;;;16.00;36.60;15.20;101069.00;;;;5061131;28;20450;-65
2022/04/02 03:16:09;;;;;;;1.52;0.70;;;16.00;37.00;15.20;101073.00;;;;5056733;28;20052;-66
2022/04/02 03:18:55;;;;;;;1.35;0.70;;;16.00;36.60;15.20;101077.00;;;;5058834;28;20533;-65
2022/04/02 03:21:42;;;;;;;1.00;0.47;;;16.00;36.60;15.20;101077.00;;;;5058708;28;20050;-66
2022/04/02 03:24:29;;;;;;;0.52;0.52;;;16.00;36.60;15.20;101086.00;;;;5058609;28;20033;-66
2022/04/02 03:27:15;;;;;;;1.98;0.77;;;16.00;36.60;15.20;101077.00;;;;5064898;28;20291;-66
2022/04/02 03:30:01;;;;;;;0.80;0.60;;;16.00;36.60;15.20;101089.00;;;;5057139;28;20044;-66
2022/04/02 03:32:47;;;;;;;0.70;0.60;;;16.00;36.60;15.20;101085.00;;;;5043926;28;20045;-66
2022/04/02 03:35:33;;;;;;;1.50;0.52;;;16.00;36.60;15.20;101093.00;;;;5061463;28;20045;-66
2022/04/02 03:38:19;;;;;;;1.15;0.57;;;16.00;36.60;15.10;101094.00;;;;5069653;28;20045;-66
2022/04/02 03:41:06;;;;;;;1.92;0.80;;;16.00;36.60;15.20;101108.00;;;;5058391;28;20040;-66
2022/04/02 03:43:53;;;;;;;1.77;0.57;;;16.00;36.60;15.20;101101.00;;;;5057917;28;20047;-66
2022/04/02 03:49:45;;;;;;;1.50;0.70;;;16.00;36.60;15.10;101099.00;;;;5048653;28;20112;-66
2022/04/02 03:52:31;;;;;;;1.08;0.65;;;16.00;36.60;15.10;101106.00;;;;5064480;28;20488;-66
2022/04/02 03:55:17;;;;;;;1.52;0.80;;;16.00;36.60;15.10;101096.00;;;;5056106;28;20609;-66
2022/04/02 03:58:03;;;;;;;1.80;0.47;;;16.00;36.60;15.10;101102.00;;;;5079694;28;20041;-66
2022/04/02 04:00:50;;;;;;;0.98;0.52;;;16.00;36.60;15.10;101110.00;;;;5074481;28;20048;-66
2022/04/02 04:03:36;;;;;;;1.90;0.80;;;16.00;36.60;15.10;101121.00;;;;5084062;28;20040;-66
2022/04/02 04:06:22;;;;;;;2.75;0.70;;;16.00;36.60;15.10;101120.00;;;;5073067;28;20044;-65
2022/04/02 04:09:08;;;;;;;3.35;0.93;;;16.00;36.60;15.10;101120.00;;;;5072717;28;20500;-66
2022/04/02 04:11:55;;;;;;;4.40;0.80;;;16.00;36.60;15.20;101119.00;;;;5065133;28;20040;-66
2022/04/02 04:14:41;;;;;;;1.63;0.60;;;16.00;36.60;15.20;101125.00;;;;5057254;28;20028;-65
2022/04/02 04:17:27;;;;;;;2.25;0.63;;;16.00;36.60;15.20;101126.00;;;;5074253;28;20098;-65
2022/04/02 04:20:13;;;;;;;1.38;0.60;;;16.10;36.60;15.20;101128.00;;;;5052512;28;20048;-66
2022/04/02 04:23:00;;;;;;;1.73;0.88;;;16.00;36.50;15.20;101137.00;;;;5058834;28;20040;-66
2022/04/02 04:25:46;;;;;;;2.72;0.90;;;16.00;36.50;15.20;101142.00;;;;5065009;28;20514;-66
2022/04/02 04:28:32;;;;;;;1.35;0.70;;;16.00;36.50;15.20;101140.00;;;;5065392;28;20037;-65
2022/04/02 04:31:18;;;;;;;1.25;0.50;;;16.10;36.60;15.20;101139.00;;;;5046567;28;20036;-66
2022/04/02 04:34:04;;;;;;;1.13;0.80;;;16.00;36.50;15.20;101149.00;;;;5056239;28;20037;-66
2022/04/02 04:36:50;;;;;;;1.63;0.70;;;16.00;36.50;15.20;101145.00;;;;5060396;28;20410;-66
2022/04/02 04:39:37;;;;;;;1.48;0.70;;;16.10;36.60;15.20;101144.00;;;;5059372;28;20040;-65
2022/04/02 04:42:23;;;;;;;1.73;0.97;;;16.00;36.50;15.20;101159.00;;;;5046025;28;20045;-66
2022/04/02 04:45:09;;;;;;;1.17;0.75;;;16.00;36.50;15.20;101154.00;;;;5058301;28;20044;-66
2022/04/02 04:47:55;;;;;;;1.58;0.82;;;16.10;36.50;15.20;101151.00;;;;5053249;28;20064;-66
2022/04/02 04:50:41;;;;;;;1.60;0.77;;;16.00;36.50;15.20;101161.00;;;;5061526;28;20051;-66
2022/04/02 04:53:28;;;;;;;1.15;0.70;;;16.00;36.40;15.20;101159.00;;;;5051115;28;20033;-66
2022/04/02 04:56:14;;;;;;;1.88;0.70;;;16.00;36.50;15.20;101170.00;;;;5048585;28;20048;-66
2022/04/02 04:59:00;;;;;;;2.75;1.10;;;16.10;36.50;15.20;101168.00;;;;5055221;28;20052;-66
2022/04/02 05:01:47;;;;;;;1.42;0.70;;;16.10;36.50;15.20;101175.00;;;;5057138;28;20056;-66
2022/04/02 05:04:33;;;;;;;0.90;0.63;;;16.00;36.40;15.20;101176.00;;;;5055979;28;20047;-66
2022/04/02 05:07:19;;;;;;;0.98;0.65;;;16.10;36.50;15.20;101173.00;;;;5060581;28;20044;-65
2022/04/02 05:10:08;;;;;;;3.05;0.70;;;16.10;36.50;15.20;101174.00;;;;5042165;28;20040;-65
2022/04/02 05:12:54;;;;;;;1.60;0.93;;;16.00;36.40;15.20;101180.00;;;;5048648;28;20044;-66
2022/04/02 05:15:44;;;;;;;1.15;0.73;;;16.10;36.50;15.20;101176.00;;;;5054080;28;20399;-66
2022/04/02 05:18:31;;;;;;;0.70;0.68;;;16.10;36.40;15.20;101180.00;;;;5041451;28;20048;-65
2022/04/02 05:21:17;;;;;;;1.33;0.90;;;16.10;36.40;15.20;101184.00;;;;5039300;28;20044;-66
2022/04/02 05:24:04;;;;;;;2.22;0.80;;;16.10;36.40;15.20;101205.00;;;;5056303;28;20529;-66
2022/04/02 05:26:50;;;;;;;1.05;0.75;;;16.10;36.50;15.20;101195.00;;;;5064923;28;20048;-66
2022/04/02 05:29:36;;;;;;;1.77;0.88;;;16.10;36.40;15.20;101204.00;;;;5061038;28;20045;-65
2022/04/02 05:32:22;;;;;;;1.20;0.70;;;16.10;36.40;15.20;101202.00;;;;5062103;28;20094;-66
2022/04/02 05:35:08;;;;;;;1.15;0.60;;;16.20;36.40;15.20;101212.00;;;;5049923;28;20068;-66
2022/04/02 05:37:54;;;;;;;1.90;0.80;;;16.20;36.40;15.20;101211.00;;;;5062143;28;20053;-65
2022/04/02 05:40:40;;;;;;;2.53;0.85;;;16.00;37.00;15.20;101216.00;;;;5057637;28;20043;-65
2022/04/02 05:43:26;;;;;;;2.90;0.73;;;16.00;36.30;15.20;101214.00;;;;5054802;28;20610;-66
2022/04/02 05:46:12;;;;;;;1.70;0.90;;;16.10;36.40;15.20;101212.00;;;;5058295;28;20494;-66
2022/04/02 05:48:58;;;;;;;0.70;0.60;;;16.10;36.40;15.20;101223.00;;;;5057729;28;20580;-66
2022/04/02 05:51:45;;;;;;;0.75;0.60;;;16.00;36.30;15.20;101231.00;;;;5054134;28;20029;-65
2022/04/02 05:54:31;;;;;;;1.33;0.80;;;16.00;36.30;15.20;101223.00;;;;5056505;28;20025;-66
2022/04/02 05:57:17;;;;;;;1.95;0.98;;;16.00;36.20;15.20;101229.00;;;;5045272;28;20399;-66
2022/04/02 06:00:11;;;;;;;1.27;0.77;;;16.00;36.20;15.20;101232.00;;;;5037661;28;20283;-66
2022/04/02 06:02:57;;;;;;;2.03;1.00;;;16.00;36.20;15.20;101238.00;;;;5030102;28;20052;-65
2022/04/02 06:05:43;;;;;;;0.90;0.70;;;16.00;36.20;15.10;101237.00;;;;5043359;28;20066;-65
2022/04/02 06:08:30;;;;;;;3.83;0.80;;;16.00;36.20;15.20;101238.00;;;;5054828;28;20049;-66
2022/04/02 06:11:16;;;;;;;1.38;0.73;;;16.00;36.20;15.20;101245.00;;;;5053098;28;20445;-66
2022/04/02 06:14:02;;;;;;;1.67;0.80;;;16.00;36.20;15.10;101247.00;;;;5055583;28;20541;-66
2022/04/02 06:16:48;;;;;;;1.92;0.90;;;16.00;36.20;15.10;101250.00;;;;5060387;28;20056;-66
2022/04/02 06:19:34;;;;;;;1.00;0.73;;;16.00;36.30;15.10;101257.00;;;;5059572;28;20043;-66
2022/04/02 06:22:20;;;;;;;1.52;0.80;;;16.00;37.00;15.10;101252.00;;;;5052558;28;20529;-66
2022/04/02 06:25:06;;;;;;;0.98;0.75;;;16.00;36.30;15.10;101255.00;;;;5044462;28;20056;-66
2022/04/02 06:27:54;;;;;;;1.95;0.88;;;16.00;36.40;15.10;101261.00;;;;5043857;28;20040;-66
2022/04/02 06:30:40;;;;;;;1.83;0.90;;;16.00;36.40;15.10;101268.00;;;;5051806;28;20501;-65
2022/04/02 06:33:26;;;;;;;1.10;0.70;;;16.00;36.40;15.10;101269.00;;;;5039381;28;20098;-65
2022/04/02 06:36:12;;;;;;;2.22;1.17;;;16.00;36.50;15.10;101278.00;;;;5051595;28;20418;-65
2022/04/02 06:38:58;;;;;;;1.75;0.90;;;16.00;36.40;15.10;101281.00;;;;5048588;28;20110;-66
2022/04/02 06:41:44;;;;;;;1.45;1.15;;;16.00;36.50;15.10;101286.00;;;;5048604;28;20573;-66
2022/04/02 06:44:33;;;;;;;1.55;1.02;;;16.00;36.50;15.10;101291.00;;;;5053334;28;20048;-66
2022/04/02 06:47:27;;;;;;;1.92;1.10;;;16.00;36.50;15.10;101285.00;;;;5051714;28;20049;-65
2022/04/02 06:50:14;;;;;;;1.67;0.98;;;16.00;36.60;15.10;101294.00;;;;5037630;28;20052;-66
2022/04/02 06:53:00;;;;;;;2.30;1.30;;;16.00;36.70;15.10;101290.00;;;;5026374;28;20049;-66
2022/04/02 06:55:46;;;;;;;1.35;1.05;;;16.00;36.80;15.10;101292.00;;;;5055711;28;20045;-65
2022/04/02 06:58:34;;;;;;;1.95;1.20;;;15.90;36.80;15.10;101297.00;;;;5047085;28;20506;-66
2022/04/02 07:01:20;;;;;;;;;;;15.90;36.80;15.00;101282.00;;;;5044235;28;20040;-66
2022/04/02 07:04:06;;;;;;;2.47;1.23;;;16.00;37.00;15.00;101289.00;;;;5054580;28;19924;-66
2022/04/02 07:06:52;;;;;;;1.55;0.93;;;16.10;37.00;15.00;101289.00;;;;5063105;28;20050;-66
2022/04/02 07:09:39;;;;;;;3.60;1.48;;;16.00;37.00;15.00;101293.00;;;;5050019;28;20033;-66
2022/04/02 07:12:25;;;;;;;1.63;0.98;;;15.90;36.90;15.00;101292.00;;;;5053864;28;20033;-66
2022/04/02 07:15:12;;;;;;;1.60;1.10;;;15.90;37.00;15.00;101299.00;;;;5048518;28;20512;-66
2022/04/02 07:18:06;;;;;;;2.22;1.15;;;15.90;37.00;15.00;101300.00;;;;5052785;28;20102;-66
2022/04/02 07:20:53;;;;;;;2.28;1.40;;;15.90;37.10;15.00;101304.00;;;;5057681;28;20044;-65
2022/04/02 07:23:41;;;;;;;3.80;1.30;;;15.90;37.20;15.10;101313.00;;;;5052328;28;20786;-65
2022/04/02 07:26:32;;;;;;;2.40;1.23;;;15.90;37.20;15.10;101309.00;;;;5079405;28;20430;-66
2022/04/02 07:29:18;;;;;;;1.85;1.10;;;15.90;37.30;15.10;101317.00;;;;5054312;28;20041;-66
2022/04/02 07:32:07;;;;;;;2.38;1.08;;;15.90;37.30;15.10;101315.00;;;;5056117;28;20041;-66
2022/04/02 07:34:53;;;;;;;1.50;1.25;;;15.90;37.30;15.10;101316.00;;;;5051300;28;20044;-69
2022/04/02 07:38:08;;;;;;;3.42;1.00;;;15.90;37.40;15.10;101317.00;;;;5040893;28;20048;-66
2022/04/02 07:41:11;;;;;;;2.70;1.38;;;15.90;37.40;15.10;101318.00;;;;5041569;28;20036;-66
2022/04/02 07:44:11;;;;;;;3.78;1.17;;;15.90;37.40;15.00;101326.00;;;;5047452;28;20051;-66
2022/04/02 07:46:58;;;;;;;6.38;1.70;;;15.90;37.50;15.00;101323.00;;;;5038852;28;20045;-66
2022/04/02 07:49:46;;;;;;;7.97;1.53;;;15.90;37.30;15.00;101327.00;;;;5056485;28;20037;-66
2022/04/02 07:52:32;;;;;;;2.38;1.40;;;15.90;37.30;14.90;101327.00;;;;5055121;28;20262;-66
2022/04/02 07:55:19;;;;;;;8.57;1.92;;;15.90;37.20;14.90;101324.00;;;;5047236;28;20440;-66
2022/04/02 07:58:05;;;;;;;4.10;1.90;;;15.90;37.40;14.90;101325.00;;;;5050652;28;20107;-66
2022/04/02 08:00:54;;;;;;;6.05;1.75;;;15.90;37.30;14.90;101334.00;;;;5045786;28;20317;-65
2022/04/02 08:03:43;;;;;;;5.22;1.88;;;15.80;37.30;14.80;101338.00;;;;5045346;28;20512;-65
2022/04/02 08:06:32;;;;;;;4.03;1.70;;;15.80;37.30;14.80;101327.00;;;;5037316;28;20487;-65
2022/04/02 08:09:18;;;;;;;5.10;1.42;;;15.80;37.40;14.80;101333.00;;;;5060749;28;20466;-65
2022/04/02 08:12:05;;;;;;;6.70;2.10;;;15.80;37.40;14.80;101331.00;;;;5051745;28;20402;-65
2022/04/02 08:14:52;;;;;;;4.00;1.67;;;15.80;37.40;14.80;101343.00;;;;5033585;28;20259;-65
2022/04/02 08:17:39;;;;;;;7.05;1.70;;;15.80;37.50;14.90;101332.00;;;;5058396;28;20432;-65
2022/04/02 08:20:25;;;;;;;2.92;1.50;;;15.80;37.50;14.90;101344.00;;;;5057736;28;20048;-65
2022/04/02 08:23:11;;;;;;;3.17;1.25;;;15.80;37.50;14.90;101344.00;;;;5055923;28;20563;-65
2022/04/02 08:26:23;;;;;;;2.55;1.45;;;15.80;37.50;15.00;101350.00;;;;5050269;28;20378;-65
2022/04/02 08:29:30;;;;;;;2.45;1.50;;;15.80;37.40;15.00;101343.00;;;;5039781;28;20052;-65
2022/04/02 08:32:29;;;;;;;2.00;1.10;;;15.90;37.50;15.00;101358.00;;;;5025394;28;20127;-64
2022/04/02 08:35:25;;;;;;;2.65;1.20;;;15.90;37.50;15.00;101350.00;;;;5049144;28;20052;-65
2022/04/02 08:38:45;;;;;;;3.72;1.40;;;15.90;37.50;15.00;101357.00;;;;5055801;28;20291;-72
2022/04/02 08:42:27;;;;;;;3.22;1.40;;;15.90;37.50;15.00;101351.00;;;;5082163;28;20052;-64
2022/04/02 08:45:14;;;;;;;2.67;1.45;;;15.90;37.50;15.00;101361.00;;;;5043679;28;20048;-63
2022/04/02 08:48:24;;;;;;;3.33;1.27;;;16.00;37.50;15.10;101362.00;;;;5072092;28;20076;-63
2022/04/02 08:51:22;;;;;;;2.50;1.40;;;15.90;37.50;15.10;101361.00;;;;5064048;28;20032;-64
2022/04/02 08:54:26;;;;;;;2.60;1.10;;;16.00;37.50;15.10;101360.00;;;;5049136;28;20063;-64
2022/04/02 08:57:31;;;;;;;2.13;1.35;;;16.00;37.40;15.10;101366.00;;;;5081639;28;20048;-64
2022/04/02 09:00:23;;;;;;;3.03;1.50;;;16.00;37.40;15.10;101376.00;;;;5076338;28;20578;-64
2022/04/02 09:03:51;;;;;;;4.38;1.50;;;16.00;37.40;15.10;101380.00;;;;5059682;28;20179;-63
2022/04/02 09:06:43;;;;;;;1.80;1.30;;;16.00;37.40;15.10;101377.00;;;;5045703;28;20219;-63
2022/04/02 09:10:10;;;;;;;1.70;1.23;;;16.00;37.40;15.10;101390.00;;;;5061059;28;20099;-63
2022/04/02 09:13:23;;;;;;;2.25;1.30;;;16.00;37.30;15.10;101386.00;;;;5065222;28;20120;-64
2022/04/02 09:16:11;;;;;;;2.10;1.10;;;16.00;37.20;15.10;101392.00;;;;5017831;28;20102;-64
2022/04/02 09:19:40;;;;;;;2.13;1.13;;;16.00;37.20;15.10;101392.00;;;;5032741;28;20036;-64
2022/04/02 09:22:36;;;;;;;2.75;1.17;;;16.00;37.10;15.10;101397.00;;;;5058399;28;20425;-64
2022/04/02 09:25:43;;;;;;;2.28;1.20;;;16.00;37.20;15.10;101390.00;;;;5063093;28;20040;-64
2022/04/02 09:29:12;;;;;;;1.27;0.80;;;16.00;37.10;15.10;101399.00;;;;5059120;28;20304;-68
2022/04/02 09:32:26;;;;;;;1.33;1.05;;;16.00;37.20;15.20;101397.00;;;;5036129;28;20052;-65
2022/04/02 09:35:59;;;;;;;2.53;1.25;;;16.00;37.10;15.10;101397.00;;;;5066583;28;20051;-70
2022/04/02 09:39:06;;;;;;;1.35;0.93;;;16.10;37.10;15.10;101395.00;;;;5057118;28;20045;-65
2022/04/02 09:41:58;;;;;;;1.58;1.02;;;16.10;37.10;15.10;101404.00;;;;5062019;28;20406;-65
2022/04/02 09:45:05;;;;;;;4.07;1.02;;;16.10;37.00;15.20;101402.00;;;;5058468;28;20131;-65
2022/04/02 09:48:06;;;;;;;2.20;1.20;;;16.10;37.00;15.20;101409.00;;;;5062220;28;20044;-66
2022/04/02 09:50:56;;;;;;;2.03;1.20;;;16.10;37.00;15.20;101399.00;;;;5045700;28;20490;-65
2022/04/02 09:53:54;;;;;;;2.03;1.15;;;16.10;36.90;15.20;101405.00;;;;5056122;28;20097;-65
2022/04/02 09:56:41;;;;;;;1.20;0.90;;;16.10;36.80;15.20;101399.00;;;;5016834;28;20036;-65
2022/04/02 09:59:55;;;;;;;1.17;0.98;;;16.10;36.80;15.20;101402.00;;;;5041639;28;20045;-65
2022/04/02 10:03:06;;;;;;;4.13;1.20;;;16.10;36.60;15.20;101408.00;;;;5054231;28;20076;-65
2022/04/02 10:06:06;;;;;;;1.70;0.88;;;16.10;36.70;15.20;101398.00;;;;5063493;28;20052;-65
2022/04/02 10:09:11;;;;;;;2.53;1.02;;;16.10;36.50;15.20;101409.00;;;;5041437;28;20072;-65
2022/04/02 10:12:01;;;;;;;1.15;0.88;;;16.10;36.40;15.20;101412.00;;;;5022658;28;20072;-65
2022/04/02 10:14:48;;;;;;;2.55;0.90;;;16.10;36.40;15.20;101397.00;;;;5050589;28;20444;-66
2022/04/02 10:17:35;;;;;;;1.98;0.80;;;16.10;36.40;15.20;101403.00;;;;5074999;28;20106;-65
2022/04/02 10:20:28;;;;;;;2.10;0.77;;;16.10;36.30;15.20;101400.00;;;;5035441;28;20076;-66
2022/04/02 10:23:25;;;;;;;2.90;1.02;;;16.20;36.40;15.20;101400.00;;;;5037188;28;20072;-66
2022/04/02 10:26:19;;;;;;;1.48;0.70;;;16.10;36.20;15.20;101413.00;;;;5035930;28;20072;-65
2022/04/02 10:29:15;;;;;;;2.03;1.00;;;16.10;36.20;15.20;101407.00;;;;5043005;28;20036;-65
2022/04/02 10:32:42;;;;;;;3.22;0.82;;;16.20;36.10;15.30;101403.00;;;;5033053;28;20076;-65
2022/04/02 10:35:29;;;;;;;2.03;0.80;;;16.20;36.10;15.20;101397.00;;;;5047971;28;20056;-65
2022/04/02 10:38:34;;;;;;;1.45;0.75;;;16.20;36.10;15.30;101394.00;;;;5061882;28;20140;-65
2022/04/02 10:41:20;;;;;;;2.03;0.85;;;16.20;36.00;15.30;101397.00;;;;5059151;28;20503;-65
2022/04/02 10:44:33;;;;;;;1.25;0.80;;;16.20;36.00;15.30;101390.00;;;;5032265;28;20081;-65
2022/04/02 10:47:21;;;;;;;2.50;1.05;;;16.20;35.90;15.30;101400.00;;;;5062722;28;20501;-65
2022/04/02 10:50:07;;;;;;;1.60;0.80;;;16.20;35.90;15.30;101396.00;;;;5059137;28;20048;-65
2022/04/02 10:52:53;;;;;;;1.05;0.73;;;16.20;35.80;15.30;101389.00;;;;5054360;28;20049;-65
2022/04/02 10:55:48;;;;;;;1.40;0.80;;;16.20;35.70;15.30;101397.00;;;;5035803;28;20040;-65
2022/04/02 10:58:37;;;;;;;1.00;0.80;;;16.20;35.50;15.30;101399.00;;;;5056101;28;20079;-65
2022/04/02 11:01:23;;;;;;;0.60;0.60;;;16.20;35.40;15.30;101396.00;;;;5062164;28;20095;-74
2022/04/02 11:04:51;;;;;;;1.90;0.50;;;16.30;35.40;15.30;101385.00;;;;5045663;28;20405;-67
2022/04/02 11:07:44;;;;;;;1.40;0.77;;;16.20;35.20;15.30;101394.00;;;;5047002;28;20051;-66
2022/04/02 11:10:30;;;;;;;1.10;0.60;;;16.30;35.10;15.30;101397.00;;;;5060671;28;20486;-66
2022/04/02 11:13:29;;;;;;;1.42;0.75;;;16.30;35.10;15.30;101396.00;;;;5042314;28;20048;-66
2022/04/02 11:16:16;;;;;;;1.23;0.50;;;16.30;35.00;15.30;101390.00;;;;5047947;28;20123;-66
2022/04/02 11:22:08;;;;;;;1.55;0.63;;;16.30;34.90;15.30;101386.00;;;;5049164;28;20041;-66
2022/04/02 11:25:09;;;;;;;0.40;0.40;;;16.30;34.80;15.40;101398.00;;;;5056937;28;20493;-66
2022/04/02 11:28:08;;;;;;;1.90;0.45;;;16.30;34.70;15.40;101383.00;;;;5069875;28;20443;-66
2022/04/02 11:31:03;;;;;;;0.90;0.43;;;16.30;34.60;15.40;101386.00;;;;5070109;28;20044;-66
2022/04/02 11:33:53;;;;;;;0.70;0.40;;;16.30;34.40;15.40;101390.00;;;;5038726;28;20477;-66
2022/04/02 11:36:44;;;;;;;1.20;0.50;;;16.30;34.30;15.40;101395.00;;;;5062638;28;20136;-66
2022/04/02 11:39:36;;;;;;;0.95;0.60;;;16.30;34.30;15.40;101390.00;;;;5056878;28;20041;-66
2022/04/02 11:42:26;;;;;;;0.75;0.60;;;16.30;34.30;15.40;101396.00;;;;5056742;28;20549;-66
2022/04/02 11:45:17;;;;;;;2.08;0.50;;;16.30;34.10;15.40;101393.00;;;;5060066;28;20088;-66
2022/04/02 11:48:14;;;;;;;0.70;0.50;;;16.30;34.10;15.40;101392.00;;;;5061936;28;20057;-66
2022/04/02 11:51:21;;;;;;;0.40;0.40;;;16.40;34.10;15.40;101384.00;;;;5057976;28;20041;-66
2022/04/02 11:54:08;;;;;;;1.38;0.68;;;16.40;34.10;15.40;101387.00;;;;5051549;28;20102;-66
2022/04/02 11:57:07;;;;;;;1.20;0.50;;;16.40;34.10;15.40;101394.00;;;;5073614;28;20494;-66
2022/04/02 12:00:02;;;;;;;0.80;0.60;;;16.40;34.10;15.40;101381.00;;;;5052308;28;20041;-66
2022/04/02 12:02:48;;;;;;;0.70;0.52;;;16.40;34.10;15.40;101400.00;;;;5066640;28;20355;-66
2022/04/02 12:05:43;;;;;;;0.80;0.60;;;16.40;34.00;15.40;101393.00;;;;5062270;28;20051;-66
2022/04/02 12:08:30;;;;;;;0.98;0.50;;;16.40;33.80;15.40;101395.00;;;;5061361;28;20049;-66
2022/04/02 12:11:23;;;;;;;1.08;0.63;;;16.40;33.90;15.40;101386.00;;;;5057261;28;20119;-66
2022/04/02 12:14:10;;;;;;;1.83;0.63;;;16.40;33.80;15.50;101390.00;;;;5041478;28;20124;-66
2022/04/02 12:17:12;;;;;;;1.57;0.57;;;16.40;33.80;15.40;101394.00;;;;5046552;28;20170;-66
2022/04/02 12:19:59;;;;;;;0.95;0.50;;;16.40;33.70;15.40;101393.00;;;;5045664;28;20099;-65
2022/04/02 12:22:46;;;;;;;0.95;0.50;;;16.40;33.80;15.40;101394.00;;;;5042668;28;20096;-65
2022/04/02 12:25:32;;;;;;;3.13;0.60;;;16.40;33.70;15.40;101383.00;;;;5058829;28;20073;-65
2022/04/02 12:28:18;;;;;;;2.47;1.13;;;16.40;33.60;15.40;101389.00;;;;5023636;28;20107;-64
2022/04/02 12:31:06;;;;;;;7.95;0.90;;;16.40;33.80;15.40;101388.00;;;;5056513;28;20540;-65
2022/04/02 12:33:55;;;;;;;5.75;1.10;;;16.40;33.80;15.40;101394.00;;;;5057390;28;20041;-65
2022/04/02 12:36:43;;;;;;;5.88;1.10;;;16.40;33.90;15.40;101394.00;;;;5031250;28;20041;-65
2022/04/02 12:39:32;;;;;;;3.92;0.90;;;16.40;33.70;15.40;101404.00;;;;5058148;28;20060;-65